sensor_id;sensor_type;location;lat;lon;timestamp;P1;durP1;ratioP1;P2;durP2;ratioP2
50605;SDS011;36557;53.572;10.170;2022-12-07T00:01:05;9.75;;;6.13;;
50605;SDS011;36557;53.572;10.170;2022-12-07T00:03:32;10.48;;;6.07;;
50605;SDS011;36557;53.572;10.170;2022-12-07T00:05:59;9.27;;;5.90;;
50605;SDS011;36557;53.572;10.170;2022-12-07T00:08:25;11.48;;;6.25;;
50605;SDS011;36557;53.572;10.170;2022-12-07T00:10:51;11.15;;;7.05;;
50605;SDS011;36557;53.572;10.170;2022-12-07T00:13:17;10.15;;;6.78;;
50605;SDS011;36557;53.572;10.170;2022-12-07T00:15:42;11.27;;;6.75;;
50605;SDS011;36557;53.572;10.170;2022-12-07T00:18:08;10.93;;;6.60;;
50605;SDS011;36557;53.572;10.170;2022-12-07T00:20:34;11.13;;;6.90;;
50605;SDS011;36557;53.572;10.170;2022-12-07T00:23:00;11.32;;;6.88;;
50605;SDS011;36557;53.572;10.170;2022-12-07T00:25:25;11.30;;;6.95;;
50605;SDS011;36557;53.572;10.170;2022-12-07T00:27:52;10.77;;;6.95;;
50605;SDS011;36557;53.572;10.170;2022-12-07T00:30:20;15.18;;;7.40;;
50605;SDS011;36557;53.572;10.170;2022-12-07T00:32:46;10.20;;;6.40;;
50605;SDS011;36557;53.572;10.170;2022-12-07T00:35:12;11.32;;;7.45;;
50605;SDS011;36557;53.572;10.170;2022-12-07T00:37:39;14.45;;;8.27;;
50605;SDS011;36557;53.572;10.170;2022-12-07T00:40:05;12.93;;;8.32;;
50605;SDS011;36557;53.572;10.170;2022-12-07T00:42:31;14.40;;;8.27;;
50605;SDS011;36557;53.572;10.170;2022-12-07T00:44:57;12.60;;;8.18;;
50605;SDS011;36557;53.572;10.170;2022-12-07T00:47:22;12.18;;;8.38;;
50605;SDS011;36557;53.572;10.170;2022-12-07T00:49:48;13.68;;;8.57;;
50605;SDS011;36557;53.572;10.170;2022-12-07T00:52:14;11.85;;;7.80;;
50605;SDS011;36557;53.572;10.170;2022-12-07T00:54:40;12.32;;;7.68;;
50605;SDS011;36557;53.572;10.170;2022-12-07T00:57:05;12.85;;;7.72;;
50605;SDS011;36557;53.572;10.170;2022-12-07T00:59:31;13.75;;;7.60;;
50605;SDS011;36557;53.572;10.170;2022-12-07T01:01:57;12.57;;;7.82;;
50605;SDS011;36557;53.572;10.170;2022-12-07T01:04:22;14.63;;;7.85;;
50605;SDS011;36557;53.572;10.170;2022-12-07T01:06:48;12.15;;;7.57;;
50605;SDS011;36557;53.572;10.170;2022-12-07T01:09:14;13.15;;;7.22;;
50605;SDS011;36557;53.572;10.170;2022-12-07T01:11:39;12.40;;;7.00;;
50605;SDS011;36557;53.572;10.170;2022-12-07T01:14:05;12.00;;;6.60;;
50605;SDS011;36557;53.572;10.170;2022-12-07T01:16:31;13.82;;;7.75;;
50605;SDS011;36557;53.572;10.170;2022-12-07T01:18:58;11.30;;;6.22;;
50605;SDS011;36557;53.572;10.170;2022-12-07T01:21:29;12.95;;;5.80;;
50605;SDS011;36557;53.572;10.170;2022-12-07T01:23:59;10.90;;;5.40;;
50605;SDS011;36557;53.572;10.170;2022-12-07T01:26:26;8.98;;;5.50;;
50605;SDS011;36557;53.572;10.170;2022-12-07T01:28:52;9.50;;;5.90;;
50605;SDS011;36557;53.572;10.170;2022-12-07T01:31:20;9.82;;;5.50;;
50605;SDS011;36557;53.572;10.170;2022-12-07T01:33:49;9.18;;;5.90;;
50605;SDS011;36557;53.572;10.170;2022-12-07T01:36:20;10.05;;;5.82;;
50605;SDS011;36557;53.572;10.170;2022-12-07T01:38:51;9.25;;;5.40;;
50605;SDS011;36557;53.572;10.170;2022-12-07T01:41:23;10.82;;;4.68;;
50605;SDS011;36557;53.572;10.170;2022-12-07T01:46:44;8.80;;;5.15;;
50605;SDS011;36557;53.572;10.170;2022-12-07T01:49:14;9.77;;;5.40;;
50605;SDS011;36557;53.572;10.170;2022-12-07T01:51:50;11.88;;;5.90;;
50605;SDS011;36557;53.572;10.170;2022-12-07T01:54:20;7.43;;;4.95;;
50605;SDS011;36557;53.572;10.170;2022-12-07T01:56:49;10.43;;;5.80;;
50605;SDS011;36557;53.572;10.170;2022-12-07T01:59:17;8.18;;;5.45;;
50605;SDS011;36557;53.572;10.170;2022-12-07T02:01:46;8.95;;;5.35;;
50605;SDS011;36557;53.572;10.170;2022-12-07T02:04:11;9.82;;;5.28;;
50605;SDS011;36557;53.572;10.170;2022-12-07T02:06:37;8.77;;;6.07;;
50605;SDS011;36557;53.572;10.170;2022-12-07T02:09:03;10.50;;;5.70;;
50605;SDS011;36557;53.572;10.170;2022-12-07T02:11:29;10.95;;;5.22;;
50605;SDS011;36557;53.572;10.170;2022-12-07T02:13:55;9.95;;;5.30;;
50605;SDS011;36557;53.572;10.170;2022-12-07T02:18:56;7.90;;;4.82;;
50605;SDS011;36557;53.572;10.170;2022-12-07T02:26:54;10.70;;;5.15;;
50605;SDS011;36557;53.572;10.170;2022-12-07T02:29:33;11.68;;;4.95;;
50605;SDS011;36557;53.572;10.170;2022-12-07T02:32:14;7.75;;;4.72;;
50605;SDS011;36557;53.572;10.170;2022-12-07T02:34:48;12.25;;;4.90;;
50605;SDS011;36557;53.572;10.170;2022-12-07T02:37:40;8.00;;;4.10;;
50605;SDS011;36557;53.572;10.170;2022-12-07T02:43:02;7.43;;;3.47;;
50605;SDS011;36557;53.572;10.170;2022-12-07T02:45:34;7.05;;;3.65;;
50605;SDS011;36557;53.572;10.170;2022-12-07T02:48:02;6.32;;;3.90;;
50605;SDS011;36557;53.572;10.170;2022-12-07T02:50:29;7.97;;;3.40;;
50605;SDS011;36557;53.572;10.170;2022-12-07T02:52:55;6.68;;;3.00;;
50605;SDS011;36557;53.572;10.170;2022-12-07T02:55:23;6.55;;;3.00;;
50605;SDS011;36557;53.572;10.170;2022-12-07T02:58:12;5.70;;;2.90;;
50605;SDS011;36557;53.572;10.170;2022-12-07T03:01:03;6.28;;;2.50;;
50605;SDS011;36557;53.572;10.170;2022-12-07T03:03:46;12.40;;;3.28;;
50605;SDS011;36557;53.572;10.170;2022-12-07T03:06:20;4.40;;;2.60;;
50605;SDS011;36557;53.572;10.170;2022-12-07T03:11:39;5.13;;;1.90;;
50605;SDS011;36557;53.572;10.170;2022-12-07T03:14:19;5.35;;;2.30;;
50605;SDS011;36557;53.572;10.170;2022-12-07T03:17:00;3.70;;;1.95;;
50605;SDS011;36557;53.572;10.170;2022-12-07T03:19:38;3.75;;;1.90;;
50605;SDS011;36557;53.572;10.170;2022-12-07T03:22:08;4.15;;;1.77;;
50605;SDS011;36557;53.572;10.170;2022-12-07T03:24:46;4.03;;;2.08;;
50605;SDS011;36557;53.572;10.170;2022-12-07T03:27:32;5.30;;;1.70;;
50605;SDS011;36557;53.572;10.170;2022-12-07T03:37:39;4.75;;;2.20;;
50605;SDS011;36557;53.572;10.170;2022-12-07T03:40:15;6.80;;;2.13;;
50605;SDS011;36557;53.572;10.170;2022-12-07T03:42:55;2.15;;;1.58;;
50605;SDS011;36557;53.572;10.170;2022-12-07T03:45:27;2.88;;;1.50;;
50605;SDS011;36557;53.572;10.170;2022-12-07T03:48:05;8.50;;;1.65;;
50605;SDS011;36557;53.572;10.170;2022-12-07T03:50:52;2.75;;;1.50;;
50605;SDS011;36557;53.572;10.170;2022-12-07T03:53:36;2.67;;;0.93;;
50605;SDS011;36557;53.572;10.170;2022-12-07T03:56:09;3.40;;;1.50;;
50605;SDS011;36557;53.572;10.170;2022-12-07T03:58:36;1.50;;;0.95;;
50605;SDS011;36557;53.572;10.170;2022-12-07T04:01:04;3.70;;;1.70;;
50605;SDS011;36557;53.572;10.170;2022-12-07T04:03:29;4.00;;;1.20;;
50605;SDS011;36557;53.572;10.170;2022-12-07T04:05:55;2.13;;;1.02;;
50605;SDS011;36557;53.572;10.170;2022-12-07T04:08:23;5.78;;;1.38;;
50605;SDS011;36557;53.572;10.170;2022-12-07T04:10:48;2.90;;;1.15;;
50605;SDS011;36557;53.572;10.170;2022-12-07T04:13:14;5.22;;;1.10;;
50605;SDS011;36557;53.572;10.170;2022-12-07T04:15:40;2.20;;;0.90;;
50605;SDS011;36557;53.572;10.170;2022-12-07T04:18:05;4.10;;;1.17;;
50605;SDS011;36557;53.572;10.170;2022-12-07T04:20:31;2.25;;;1.17;;
50605;SDS011;36557;53.572;10.170;2022-12-07T04:22:57;2.38;;;1.52;;
50605;SDS011;36557;53.572;10.170;2022-12-07T04:25:22;3.45;;;0.90;;
50605;SDS011;36557;53.572;10.170;2022-12-07T04:27:48;4.18;;;1.05;;
50605;SDS011;36557;53.572;10.170;2022-12-07T04:30:14;1.40;;;0.90;;
50605;SDS011;36557;53.572;10.170;2022-12-07T04:32:40;1.65;;;0.80;;
50605;SDS011;36557;53.572;10.170;2022-12-07T04:35:06;2.85;;;1.30;;
50605;SDS011;36557;53.572;10.170;2022-12-07T04:37:32;2.25;;;1.02;;
50605;SDS011;36557;53.572;10.170;2022-12-07T04:39:58;3.67;;;1.50;;
50605;SDS011;36557;53.572;10.170;2022-12-07T04:42:23;4.93;;;1.30;;
50605;SDS011;36557;53.572;10.170;2022-12-07T04:44:49;3.33;;;2.05;;
50605;SDS011;36557;53.572;10.170;2022-12-07T04:47:16;4.53;;;1.20;;
50605;SDS011;36557;53.572;10.170;2022-12-07T04:49:41;3.05;;;1.10;;
50605;SDS011;36557;53.572;10.170;2022-12-07T04:52:07;2.85;;;1.00;;
50605;SDS011;36557;53.572;10.170;2022-12-07T04:54:33;2.80;;;1.05;;
50605;SDS011;36557;53.572;10.170;2022-12-07T04:56:59;1.42;;;1.10;;
50605;SDS011;36557;53.572;10.170;2022-12-07T04:59:24;5.97;;;1.15;;
50605;SDS011;36557;53.572;10.170;2022-12-07T05:01:50;4.68;;;1.27;;
50605;SDS011;36557;53.572;10.170;2022-12-07T05:04:16;3.60;;;1.10;;
50605;SDS011;36557;53.572;10.170;2022-12-07T05:06:43;3.28;;;1.30;;
50605;SDS011;36557;53.572;10.170;2022-12-07T05:09:09;3.13;;;1.70;;
50605;SDS011;36557;53.572;10.170;2022-12-07T05:11:34;3.10;;;1.25;;
50605;SDS011;36557;53.572;10.170;2022-12-07T05:14:03;2.03;;;1.25;;
50605;SDS011;36557;53.572;10.170;2022-12-07T05:16:35;2.88;;;1.20;;
50605;SDS011;36557;53.572;10.170;2022-12-07T05:19:01;3.60;;;1.30;;
50605;SDS011;36557;53.572;10.170;2022-12-07T05:21:27;3.13;;;1.25;;
50605;SDS011;36557;53.572;10.170;2022-12-07T05:23:53;3.28;;;1.33;;
50605;SDS011;36557;53.572;10.170;2022-12-07T05:26:18;2.83;;;1.40;;
50605;SDS011;36557;53.572;10.170;2022-12-07T05:28:44;2.38;;;1.52;;
50605;SDS011;36557;53.572;10.170;2022-12-07T05:31:10;3.67;;;1.50;;
50605;SDS011;36557;53.572;10.170;2022-12-07T05:33:36;2.45;;;1.33;;
50605;SDS011;36557;53.572;10.170;2022-12-07T05:36:01;4.00;;;1.55;;
50605;SDS011;36557;53.572;10.170;2022-12-07T05:38:31;5.20;;;1.45;;
50605;SDS011;36557;53.572;10.170;2022-12-07T05:40:59;4.22;;;1.90;;
50605;SDS011;36557;53.572;10.170;2022-12-07T05:43:30;2.40;;;1.50;;
50605;SDS011;36557;53.572;10.170;2022-12-07T05:45:56;4.68;;;1.77;;
50605;SDS011;36557;53.572;10.170;2022-12-07T05:48:22;3.65;;;1.73;;
50605;SDS011;36557;53.572;10.170;2022-12-07T05:50:48;3.88;;;1.73;;
50605;SDS011;36557;53.572;10.170;2022-12-07T05:53:14;4.18;;;1.90;;
50605;SDS011;36557;53.572;10.170;2022-12-07T05:55:40;2.95;;;1.75;;
50605;SDS011;36557;53.572;10.170;2022-12-07T05:58:06;4.50;;;2.25;;
50605;SDS011;36557;53.572;10.170;2022-12-07T06:00:50;4.35;;;2.05;;
50605;SDS011;36557;53.572;10.170;2022-12-07T06:03:16;3.22;;;2.08;;
50605;SDS011;36557;53.572;10.170;2022-12-07T06:05:42;4.00;;;2.33;;
50605;SDS011;36557;53.572;10.170;2022-12-07T06:08:07;5.10;;;2.10;;
50605;SDS011;36557;53.572;10.170;2022-12-07T06:10:33;3.17;;;1.63;;
50605;SDS011;36557;53.572;10.170;2022-12-07T06:12:59;4.07;;;2.55;;
50605;SDS011;36557;53.572;10.170;2022-12-07T06:15:24;4.03;;;2.28;;
50605;SDS011;36557;53.572;10.170;2022-12-07T06:17:50;2.88;;;2.13;;
50605;SDS011;36557;53.572;10.170;2022-12-07T06:20:16;4.32;;;2.83;;
50605;SDS011;36557;53.572;10.170;2022-12-07T06:22:42;5.63;;;2.28;;
50605;SDS011;36557;53.572;10.170;2022-12-07T06:25:07;3.65;;;2.25;;
50605;SDS011;36557;53.572;10.170;2022-12-07T06:27:34;5.25;;;2.20;;
50605;SDS011;36557;53.572;10.170;2022-12-07T06:30:00;4.72;;;3.08;;
50605;SDS011;36557;53.572;10.170;2022-12-07T06:32:31;5.10;;;2.42;;
50605;SDS011;36557;53.572;10.170;2022-12-07T06:34:57;4.65;;;2.15;;
50605;SDS011;36557;53.572;10.170;2022-12-07T06:37:24;4.93;;;2.60;;
50605;SDS011;36557;53.572;10.170;2022-12-07T06:39:50;4.65;;;2.80;;
50605;SDS011;36557;53.572;10.170;2022-12-07T06:42:15;3.45;;;2.60;;
50605;SDS011;36557;53.572;10.170;2022-12-07T06:44:41;4.25;;;2.63;;
50605;SDS011;36557;53.572;10.170;2022-12-07T06:47:07;3.67;;;2.42;;
50605;SDS011;36557;53.572;10.170;2022-12-07T06:49:34;4.43;;;1.95;;
50605;SDS011;36557;53.572;10.170;2022-12-07T06:52:00;5.50;;;1.80;;
50605;SDS011;36557;53.572;10.170;2022-12-07T06:54:26;4.82;;;2.25;;
50605;SDS011;36557;53.572;10.170;2022-12-07T06:56:52;3.35;;;2.00;;
50605;SDS011;36557;53.572;10.170;2022-12-07T06:59:18;5.32;;;2.50;;
50605;SDS011;36557;53.572;10.170;2022-12-07T07:01:43;3.38;;;2.38;;
50605;SDS011;36557;53.572;10.170;2022-12-07T07:04:09;2.75;;;1.80;;
50605;SDS011;36557;53.572;10.170;2022-12-07T07:06:35;3.63;;;2.00;;
50605;SDS011;36557;53.572;10.170;2022-12-07T07:09:00;3.10;;;2.00;;
50605;SDS011;36557;53.572;10.170;2022-12-07T07:11:26;7.40;;;1.90;;
50605;SDS011;36557;53.572;10.170;2022-12-07T07:13:52;3.70;;;1.63;;
50605;SDS011;36557;53.572;10.170;2022-12-07T07:16:18;3.38;;;1.83;;
50605;SDS011;36557;53.572;10.170;2022-12-07T07:18:44;3.63;;;1.98;;
50605;SDS011;36557;53.572;10.170;2022-12-07T07:21:10;3.90;;;1.90;;
50605;SDS011;36557;53.572;10.170;2022-12-07T07:23:35;4.57;;;1.90;;
50605;SDS011;36557;53.572;10.170;2022-12-07T07:26:01;2.65;;;1.38;;
50605;SDS011;36557;53.572;10.170;2022-12-07T07:28:27;2.42;;;1.30;;
50605;SDS011;36557;53.572;10.170;2022-12-07T07:30:52;6.82;;;1.80;;
50605;SDS011;36557;53.572;10.170;2022-12-07T07:33:18;4.68;;;1.70;;
50605;SDS011;36557;53.572;10.170;2022-12-07T07:35:44;3.42;;;1.52;;
50605;SDS011;36557;53.572;10.170;2022-12-07T07:38:10;4.15;;;1.67;;
50605;SDS011;36557;53.572;10.170;2022-12-07T07:40:35;5.55;;;1.58;;
50605;SDS011;36557;53.572;10.170;2022-12-07T07:43:01;5.50;;;2.05;;
50605;SDS011;36557;53.572;10.170;2022-12-07T07:45:28;8.63;;;1.60;;
50605;SDS011;36557;53.572;10.170;2022-12-07T07:47:53;4.35;;;1.58;;
50605;SDS011;36557;53.572;10.170;2022-12-07T07:50:20;3.65;;;1.35;;
50605;SDS011;36557;53.572;10.170;2022-12-07T07:52:46;6.97;;;1.50;;
50605;SDS011;36557;53.572;10.170;2022-12-07T07:55:12;4.35;;;1.40;;
50605;SDS011;36557;53.572;10.170;2022-12-07T07:57:39;4.57;;;1.58;;
50605;SDS011;36557;53.572;10.170;2022-12-07T08:00:09;4.53;;;1.30;;
50605;SDS011;36557;53.572;10.170;2022-12-07T08:02:36;4.90;;;1.20;;
50605;SDS011;36557;53.572;10.170;2022-12-07T08:05:02;4.93;;;1.30;;
50605;SDS011;36557;53.572;10.170;2022-12-07T08:07:29;2.53;;;1.10;;
50605;SDS011;36557;53.572;10.170;2022-12-07T08:09:54;3.65;;;1.23;;
50605;SDS011;36557;53.572;10.170;2022-12-07T08:12:20;7.90;;;1.73;;
50605;SDS011;36557;53.572;10.170;2022-12-07T08:14:46;5.07;;;1.73;;
50605;SDS011;36557;53.572;10.170;2022-12-07T08:17:11;2.58;;;1.15;;
50605;SDS011;36557;53.572;10.170;2022-12-07T08:19:38;2.22;;;1.10;;
50605;SDS011;36557;53.572;10.170;2022-12-07T08:22:04;5.13;;;1.30;;
50605;SDS011;36557;53.572;10.170;2022-12-07T08:24:30;3.08;;;0.90;;
50605;SDS011;36557;53.572;10.170;2022-12-07T08:26:58;4.60;;;1.30;;
50605;SDS011;36557;53.572;10.170;2022-12-07T08:29:24;4.45;;;1.30;;
50605;SDS011;36557;53.572;10.170;2022-12-07T08:31:50;3.85;;;1.33;;
50605;SDS011;36557;53.572;10.170;2022-12-07T08:34:15;3.22;;;1.20;;
50605;SDS011;36557;53.572;10.170;2022-12-07T08:36:41;4.05;;;1.20;;
50605;SDS011;36557;53.572;10.170;2022-12-07T08:39:07;7.53;;;1.60;;
50605;SDS011;36557;53.572;10.170;2022-12-07T08:41:33;4.57;;;1.50;;
50605;SDS011;36557;53.572;10.170;2022-12-07T08:43:59;5.78;;;1.60;;
50605;SDS011;36557;53.572;10.170;2022-12-07T08:46:25;7.32;;;1.33;;
50605;SDS011;36557;53.572;10.170;2022-12-07T08:51:32;3.95;;;1.05;;
50605;SDS011;36557;53.572;10.170;2022-12-07T08:53:58;4.43;;;1.00;;
50605;SDS011;36557;53.572;10.170;2022-12-07T08:56:29;2.45;;;1.15;;
50605;SDS011;36557;53.572;10.170;2022-12-07T08:58:54;4.57;;;1.60;;
50605;SDS011;36557;53.572;10.170;2022-12-07T09:01:20;7.63;;;1.60;;
50605;SDS011;36557;53.572;10.170;2022-12-07T09:03:46;11.50;;;1.77;;
50605;SDS011;36557;53.572;10.170;2022-12-07T09:06:11;3.50;;;1.05;;
50605;SDS011;36557;53.572;10.170;2022-12-07T09:08:39;6.45;;;1.20;;
50605;SDS011;36557;53.572;10.170;2022-12-07T09:11:11;4.32;;;1.15;;
50605;SDS011;36557;53.572;10.170;2022-12-07T09:13:36;5.65;;;1.02;;
50605;SDS011;36557;53.572;10.170;2022-12-07T09:16:02;4.72;;;1.13;;
50605;SDS011;36557;53.572;10.170;2022-12-07T09:18:28;4.72;;;0.80;;
50605;SDS011;36557;53.572;10.170;2022-12-07T09:20:53;5.70;;;1.10;;
50605;SDS011;36557;53.572;10.170;2022-12-07T09:23:20;3.00;;;0.82;;
50605;SDS011;36557;53.572;10.170;2022-12-07T09:25:46;4.07;;;1.10;;
50605;SDS011;36557;53.572;10.170;2022-12-07T09:28:12;5.13;;;1.20;;
50605;SDS011;36557;53.572;10.170;2022-12-07T09:30:37;6.47;;;1.20;;
50605;SDS011;36557;53.572;10.170;2022-12-07T09:33:03;2.83;;;1.02;;
50605;SDS011;36557;53.572;10.170;2022-12-07T09:35:29;3.65;;;1.00;;
50605;SDS011;36557;53.572;10.170;2022-12-07T09:37:54;2.72;;;1.00;;
50605;SDS011;36557;53.572;10.170;2022-12-07T09:40:21;3.15;;;1.20;;
50605;SDS011;36557;53.572;10.170;2022-12-07T09:42:49;3.85;;;0.95;;
50605;SDS011;36557;53.572;10.170;2022-12-07T09:45:31;4.40;;;0.90;;
50605;SDS011;36557;53.572;10.170;2022-12-07T09:48:00;4.32;;;1.30;;
50605;SDS011;36557;53.572;10.170;2022-12-07T09:50:28;3.67;;;0.93;;
50605;SDS011;36557;53.572;10.170;2022-12-07T09:53:08;6.40;;;1.30;;
50605;SDS011;36557;53.572;10.170;2022-12-07T09:55:39;5.63;;;1.10;;
50605;SDS011;36557;53.572;10.170;2022-12-07T09:58:08;3.33;;;1.10;;
50605;SDS011;36557;53.572;10.170;2022-12-07T10:00:42;4.97;;;1.00;;
50605;SDS011;36557;53.572;10.170;2022-12-07T10:03:09;8.82;;;1.23;;
50605;SDS011;36557;53.572;10.170;2022-12-07T10:05:41;5.35;;;1.55;;
50605;SDS011;36557;53.572;10.170;2022-12-07T10:08:11;3.88;;;1.00;;
50605;SDS011;36557;53.572;10.170;2022-12-07T10:10:38;6.50;;;1.40;;
50605;SDS011;36557;53.572;10.170;2022-12-07T10:13:08;5.00;;;1.10;;
50605;SDS011;36557;53.572;10.170;2022-12-07T10:15:43;5.50;;;1.10;;
50605;SDS011;36557;53.572;10.170;2022-12-07T10:18:39;9.63;;;1.60;;
50605;SDS011;36557;53.572;10.170;2022-12-07T10:21:19;2.75;;;1.40;;
50605;SDS011;36557;53.572;10.170;2022-12-07T10:26:50;5.43;;;1.60;;
50605;SDS011;36557;53.572;10.170;2022-12-07T10:32:33;4.15;;;1.10;;
50605;SDS011;36557;53.572;10.170;2022-12-07T10:37:50;7.15;;;1.63;;
50605;SDS011;36557;53.572;10.170;2022-12-07T10:40:35;4.20;;;0.90;;
50605;SDS011;36557;53.572;10.170;2022-12-07T10:45:41;3.38;;;1.17;;
50605;SDS011;36557;53.572;10.170;2022-12-07T10:48:23;8.32;;;1.20;;
50605;SDS011;36557;53.572;10.170;2022-12-07T10:54:38;10.93;;;1.17;;
50605;SDS011;36557;53.572;10.170;2022-12-07T10:57:27;4.05;;;1.20;;
50605;SDS011;36557;53.572;10.170;2022-12-07T11:17:17;4.72;;;1.50;;
50605;SDS011;36557;53.572;10.170;2022-12-07T11:20:02;7.80;;;1.90;;
50605;SDS011;36557;53.572;10.170;2022-12-07T11:22:51;6.65;;;1.08;;
50605;SDS011;36557;53.572;10.170;2022-12-07T11:25:57;4.85;;;2.00;;
50605;SDS011;36557;53.572;10.170;2022-12-07T11:33:58;6.65;;;1.70;;
50605;SDS011;36557;53.572;10.170;2022-12-07T11:36:39;6.68;;;1.55;;
50605;SDS011;36557;53.572;10.170;2022-12-07T11:39:25;4.57;;;1.00;;
50605;SDS011;36557;53.572;10.170;2022-12-07T11:42:01;3.92;;;0.90;;
50605;SDS011;36557;53.572;10.170;2022-12-07T11:44:34;6.32;;;1.08;;
50605;SDS011;36557;53.572;10.170;2022-12-07T11:52:58;8.13;;;1.95;;
50605;SDS011;36557;53.572;10.170;2022-12-07T12:01:08;3.03;;;1.25;;
50605;SDS011;36557;53.572;10.170;2022-12-07T12:03:50;7.68;;;1.17;;
50605;SDS011;36557;53.572;10.170;2022-12-07T12:06:23;5.55;;;2.13;;
50605;SDS011;36557;53.572;10.170;2022-12-07T12:08:56;8.15;;;1.17;;
50605;SDS011;36557;53.572;10.170;2022-12-07T12:23:20;6.97;;;2.05;;
50605;SDS011;36557;53.572;10.170;2022-12-07T12:25:55;8.50;;;1.50;;
50605;SDS011;36557;53.572;10.170;2022-12-07T12:29:18;2.72;;;0.85;;
50605;SDS011;36557;53.572;10.170;2022-12-07T12:33:53;4.47;;;1.00;;
50605;SDS011;36557;53.572;10.170;2022-12-07T12:49:36;8.25;;;1.30;;
50605;SDS011;36557;53.572;10.170;2022-12-07T12:54:38;6.55;;;1.20;;
50605;SDS011;36557;53.572;10.170;2022-12-07T12:57:31;3.90;;;0.90;;
50605;SDS011;36557;53.572;10.170;2022-12-07T12:59:58;7.47;;;1.58;;
50605;SDS011;36557;53.572;10.170;2022-12-07T13:02:31;7.07;;;1.15;;
50605;SDS011;36557;53.572;10.170;2022-12-07T13:07:54;5.93;;;1.00;;
50605;SDS011;36557;53.572;10.170;2022-12-07T13:10:40;5.80;;;0.95;;
50605;SDS011;36557;53.572;10.170;2022-12-07T13:26:15;2.42;;;0.88;;
50605;SDS011;36557;53.572;10.170;2022-12-07T13:28:48;6.03;;;0.85;;
50605;SDS011;36557;53.572;10.170;2022-12-07T13:31:30;7.60;;;1.10;;
50605;SDS011;36557;53.572;10.170;2022-12-07T13:34:03;4.07;;;0.75;;
50605;SDS011;36557;53.572;10.170;2022-12-07T13:36:36;5.93;;;1.00;;
50605;SDS011;36557;53.572;10.170;2022-12-07T13:39:19;4.10;;;1.08;;
50605;SDS011;36557;53.572;10.170;2022-12-07T13:41:53;5.30;;;0.93;;
50605;SDS011;36557;53.572;10.170;2022-12-07T13:44:22;5.85;;;1.10;;
50605;SDS011;36557;53.572;10.170;2022-12-07T13:47:00;5.20;;;0.90;;
50605;SDS011;36557;53.572;10.170;2022-12-07T13:49:31;5.72;;;0.90;;
50605;SDS011;36557;53.572;10.170;2022-12-07T13:52:17;3.72;;;1.02;;
50605;SDS011;36557;53.572;10.170;2022-12-07T13:54:45;4.60;;;1.10;;
50605;SDS011;36557;53.572;10.170;2022-12-07T13:57:12;9.10;;;1.00;;
50605;SDS011;36557;53.572;10.170;2022-12-07T13:59:37;6.88;;;1.35;;
50605;SDS011;36557;53.572;10.170;2022-12-07T14:02:16;4.65;;;1.02;;
50605;SDS011;36557;53.572;10.170;2022-12-07T14:04:46;2.70;;;0.70;;
50605;SDS011;36557;53.572;10.170;2022-12-07T14:07:27;4.63;;;0.70;;
50605;SDS011;36557;53.572;10.170;2022-12-07T14:09:54;3.33;;;0.65;;
50605;SDS011;36557;53.572;10.170;2022-12-07T14:12:29;4.80;;;0.88;;
50605;SDS011;36557;53.572;10.170;2022-12-07T14:14:56;2.25;;;0.75;;
50605;SDS011;36557;53.572;10.170;2022-12-07T14:17:23;3.05;;;0.70;;
50605;SDS011;36557;53.572;10.170;2022-12-07T14:22:29;3.70;;;0.60;;
50605;SDS011;36557;53.572;10.170;2022-12-07T14:27:50;1.13;;;0.60;;
50605;SDS011;36557;53.572;10.170;2022-12-07T14:30:21;2.88;;;0.68;;
50605;SDS011;36557;53.572;10.170;2022-12-07T14:32:49;2.03;;;0.70;;
50605;SDS011;36557;53.572;10.170;2022-12-07T14:35:22;4.73;;;1.43;;
50605;SDS011;36557;53.572;10.170;2022-12-07T14:37:48;3.72;;;0.85;;
50605;SDS011;36557;53.572;10.170;2022-12-07T14:40:16;4.30;;;0.80;;
50605;SDS011;36557;53.572;10.170;2022-12-07T14:42:44;3.95;;;0.60;;
50605;SDS011;36557;53.572;10.170;2022-12-07T14:45:19;1.85;;;0.70;;
50605;SDS011;36557;53.572;10.170;2022-12-07T14:47:46;2.28;;;0.80;;
50605;SDS011;36557;53.572;10.170;2022-12-07T14:50:13;3.40;;;0.60;;
50605;SDS011;36557;53.572;10.170;2022-12-07T14:52:40;4.90;;;0.70;;
50605;SDS011;36557;53.572;10.170;2022-12-07T14:55:16;3.00;;;0.98;;
50605;SDS011;36557;53.572;10.170;2022-12-07T14:57:52;3.30;;;1.00;;
50605;SDS011;36557;53.572;10.170;2022-12-07T15:00:19;2.88;;;0.60;;
50605;SDS011;36557;53.572;10.170;2022-12-07T15:02:47;3.97;;;0.85;;
50605;SDS011;36557;53.572;10.170;2022-12-07T15:05:13;7.10;;;0.90;;
50605;SDS011;36557;53.572;10.170;2022-12-07T15:07:39;6.55;;;1.00;;
50605;SDS011;36557;53.572;10.170;2022-12-07T15:10:06;5.38;;;0.90;;
50605;SDS011;36557;53.572;10.170;2022-12-07T15:12:38;3.83;;;1.50;;
50605;SDS011;36557;53.572;10.170;2022-12-07T15:15:03;4.82;;;0.80;;
50605;SDS011;36557;53.572;10.170;2022-12-07T15:17:30;4.10;;;0.80;;
50605;SDS011;36557;53.572;10.170;2022-12-07T15:19:56;4.80;;;0.75;;
50605;SDS011;36557;53.572;10.170;2022-12-07T15:22:21;2.60;;;0.52;;
50605;SDS011;36557;53.572;10.170;2022-12-07T15:24:47;2.63;;;0.73;;
50605;SDS011;36557;53.572;10.170;2022-12-07T15:27:13;3.97;;;0.65;;
50605;SDS011;36557;53.572;10.170;2022-12-07T15:29:38;2.70;;;0.90;;
50605;SDS011;36557;53.572;10.170;2022-12-07T15:32:04;2.35;;;0.60;;
50605;SDS011;36557;53.572;10.170;2022-12-07T15:34:30;4.40;;;0.90;;
50605;SDS011;36557;53.572;10.170;2022-12-07T15:36:56;4.30;;;0.65;;
50605;SDS011;36557;53.572;10.170;2022-12-07T15:39:22;3.47;;;0.63;;
50605;SDS011;36557;53.572;10.170;2022-12-07T15:41:48;6.40;;;1.10;;
50605;SDS011;36557;53.572;10.170;2022-12-07T15:44:14;2.05;;;0.80;;
50605;SDS011;36557;53.572;10.170;2022-12-07T15:46:59;6.03;;;1.65;;
50605;SDS011;36557;53.572;10.170;2022-12-07T15:49:25;9.40;;;4.97;;
50605;SDS011;36557;53.572;10.170;2022-12-07T15:51:51;7.15;;;3.85;;
50605;SDS011;36557;53.572;10.170;2022-12-07T15:54:21;17.00;;;7.75;;
50605;SDS011;36557;53.572;10.170;2022-12-07T15:56:52;17.90;;;8.80;;
50605;SDS011;36557;53.572;10.170;2022-12-07T15:59:17;9.27;;;4.75;;
50605;SDS011;36557;53.572;10.170;2022-12-07T16:01:43;14.40;;;5.15;;
50605;SDS011;36557;53.572;10.170;2022-12-07T16:04:09;6.20;;;4.30;;
50605;SDS011;36557;53.572;10.170;2022-12-07T16:06:35;3.88;;;2.53;;
50605;SDS011;36557;53.572;10.170;2022-12-07T16:09:01;4.07;;;1.27;;
50605;SDS011;36557;53.572;10.170;2022-12-07T16:11:27;5.70;;;1.38;;
50605;SDS011;36557;53.572;10.170;2022-12-07T16:13:53;3.97;;;1.40;;
50605;SDS011;36557;53.572;10.170;2022-12-07T16:16:19;5.15;;;1.50;;
50605;SDS011;36557;53.572;10.170;2022-12-07T16:18:47;2.95;;;1.27;;
50605;SDS011;36557;53.572;10.170;2022-12-07T16:21:14;5.95;;;1.10;;
50605;SDS011;36557;53.572;10.170;2022-12-07T16:23:40;3.78;;;1.15;;
50605;SDS011;36557;53.572;10.170;2022-12-07T16:28:34;3.13;;;1.25;;
50605;SDS011;36557;53.572;10.170;2022-12-07T16:31:03;3.42;;;1.63;;
50605;SDS011;36557;53.572;10.170;2022-12-07T16:33:32;6.43;;;1.38;;
50605;SDS011;36557;53.572;10.170;2022-12-07T16:36:02;7.30;;;1.63;;
50605;SDS011;36557;53.572;10.170;2022-12-07T16:38:29;3.45;;;1.38;;
50605;SDS011;36557;53.572;10.170;2022-12-07T16:40:55;6.38;;;1.50;;
50605;SDS011;36557;53.572;10.170;2022-12-07T16:43:20;4.18;;;1.50;;
50605;SDS011;36557;53.572;10.170;2022-12-07T16:45:46;3.55;;;1.63;;
50605;SDS011;36557;53.572;10.170;2022-12-07T16:48:13;3.10;;;1.48;;
50605;SDS011;36557;53.572;10.170;2022-12-07T16:50:39;2.83;;;1.30;;
50605;SDS011;36557;53.572;10.170;2022-12-07T16:53:07;5.03;;;1.20;;
50605;SDS011;36557;53.572;10.170;2022-12-07T16:55:37;3.55;;;1.27;;